Time;durP1;ratioP1;P1;durP2;ratioP2;P2;SDS_P1;SDS_P2;PMS_P1;PMS_P2;Temp;Humidity;BMP_temperature;BMP_pressure;BME280_temperature;BME280_humidity;BME280_pressure;Samples;Min_cycle;Max_cycle;Signal;HPM_P1;HPM_P2
2022/02/24 00:02:04;;;;;;;4.93;2.45;;;12.30;91.70;;;;;;4984768;28;20051;-61
2022/02/24 00:04:32;;;;;;;3.30;2.28;;;12.30;91.90;;;;;;4971534;28;20036;-58
2022/02/24 00:07:39;;;;;;;9.05;3.58;;;12.30;92.00;;;;;;4970981;28;20118;-59
2022/02/24 00:10:25;;;;;;;3.00;1.90;;;12.30;92.20;;;;;;4974360;28;20047;-58
2022/02/24 00:12:53;;;;;;;4.95;2.17;;;12.30;92.30;;;;;;4975329;28;20038;-60
2022/02/24 00:15:21;;;;;;;3.35;2.10;;;12.20;92.10;;;;;;4991690;28;20055;-58
2022/02/24 00:17:49;;;;;;;3.92;2.28;;;12.20;92.20;;;;;;4974595;28;20370;-59
2022/02/24 00:20:22;;;;;;;3.65;2.10;;;12.20;92.10;;;;;;4975503;28;20519;-58
2022/02/24 00:22:50;;;;;;;6.13;2.08;;;12.10;91.80;;;;;;4972334;28;20425;-58
2022/02/24 00:25:18;;;;;;;3.55;1.75;;;12.10;91.20;;;;;;4975006;28;20485;-58
2022/02/24 00:27:46;;;;;;;5.18;2.28;;;12.10;90.70;;;;;;4975173;28;20038;-58
2022/02/24 00:30:13;;;;;;;3.30;1.30;;;12.10;90.20;;;;;;4974347;28;20085;-58
2022/02/24 00:32:41;;;;;;;2.60;1.65;;;12.10;90.10;;;;;;4973319;28;20141;-58
2022/02/24 00:35:11;;;;;;;6.80;1.90;;;12.20;90.00;;;;;;4974891;28;20616;-58
2022/02/24 00:37:40;;;;;;;3.28;2.03;;;12.20;90.20;;;;;;4973161;28;20058;-58
2022/02/24 00:40:10;;;;;;;7.43;2.08;;;12.20;90.40;;;;;;4974470;28;20035;-58
2022/02/24 00:42:38;;;;;;;3.67;2.10;;;12.20;90.60;;;;;;4972069;28;20362;-58
2022/02/24 00:45:06;;;;;;;5.65;1.70;;;12.20;90.60;;;;;;4981888;28;20035;-58
2022/02/24 00:47:34;;;;;;;3.40;1.33;;;12.20;90.60;;;;;;4962138;28;20560;-58
2022/02/24 00:50:02;;;;;;;6.03;1.90;;;12.10;90.50;;;;;;4934345;28;20050;-58
2022/02/24 00:52:30;;;;;;;3.95;1.77;;;12.10;90.50;;;;;;4973945;28;20035;-58
2022/02/24 00:54:57;;;;;;;5.72;2.17;;;12.10;90.60;;;;;;4975279;28;20477;-58
2022/02/24 00:57:25;;;;;;;2.55;1.67;;;12.20;90.70;;;;;;4972267;28;20050;-58
2022/02/24 00:59:52;;;;;;;5.78;1.55;;;12.10;90.70;;;;;;4974267;28;20035;-58
2022/02/24 01:02:20;;;;;;;3.05;1.42;;;12.00;90.70;;;;;;4975349;28;20046;-58
2022/02/24 01:04:48;;;;;;;3.72;1.40;;;12.10;90.70;;;;;;4958215;28;20129;-58
2022/02/24 01:07:17;;;;;;;3.63;2.10;;;12.00;90.30;;;;;;4973564;28;20441;-58
2022/02/24 01:09:45;;;;;;;3.75;2.10;;;12.00;90.00;;;;;;4957367;28;20069;-59
2022/02/24 01:12:13;;;;;;;2.63;1.95;;;12.00;90.00;;;;;;4970961;28;20043;-58
2022/02/24 01:14:40;;;;;;;4.00;1.65;;;12.00;89.60;;;;;;4973956;28;20494;-58
2022/02/24 01:17:08;;;;;;;3.17;1.80;;;12.00;90.00;;;;;;4957090;28;20049;-58
2022/02/24 01:19:35;;;;;;;2.88;1.55;;;12.00;90.20;;;;;;4973992;28;20068;-58
2022/02/24 01:22:03;;;;;;;7.63;1.90;;;12.00;90.20;;;;;;4974270;28;20043;-58
2022/02/24 01:24:31;;;;;;;4.43;1.58;;;12.00;90.00;;;;;;4973999;28;20486;-58
2022/02/24 01:26:58;;;;;;;3.55;1.83;;;12.00;89.20;;;;;;4963370;28;20397;-58
2022/02/24 01:29:26;;;;;;;1.73;1.17;;;12.00;89.00;;;;;;4987668;28;20043;-58
2022/02/24 01:31:54;;;;;;;4.00;1.60;;;12.00;88.70;;;;;;4971662;28;20097;-58
2022/02/24 01:34:27;;;;;;;4.88;1.77;;;12.00;89.20;;;;;;4973957;28;20502;-58
2022/02/24 01:36:54;;;;;;;3.38;1.30;;;12.00;89.40;;;;;;4972239;28;20445;-59
2022/02/24 01:39:22;;;;;;;6.50;2.13;;;12.00;89.10;;;;;;4973849;28;20058;-59
2022/02/24 01:41:49;;;;;;;3.33;1.60;;;12.00;88.50;;;;;;4974146;28;20038;-57
2022/02/24 01:44:19;;;;;;;5.40;1.70;;;12.00;88.30;;;;;;4973688;28;20047;-58
2022/02/24 01:46:47;;;;;;;3.63;1.58;;;11.90;87.50;;;;;;4972826;28;20071;-58
2022/02/24 01:49:15;;;;;;;3.58;1.40;;;12.00;87.50;;;;;;4973061;28;20457;-58
2022/02/24 01:51:43;;;;;;;2.88;1.25;;;11.90;87.50;;;;;;4965009;28;20490;-58
2022/02/24 01:54:11;;;;;;;4.32;1.45;;;11.90;87.70;;;;;;4973957;28;20114;-58
2022/02/24 01:56:38;;;;;;;4.03;1.73;;;11.90;87.70;;;;;;4972839;28;20130;-58
2022/02/24 01:59:06;;;;;;;9.15;3.17;;;11.80;88.00;;;;;;4973305;28;20531;-58
2022/02/24 02:01:33;;;;;;;5.47;1.60;;;11.90;88.10;;;;;;4968859;28;20031;-58
2022/02/24 02:04:01;;;;;;;4.10;1.80;;;11.90;88.20;;;;;;4972831;28;20074;-57
2022/02/24 02:06:29;;;;;;;5.55;1.42;;;11.90;88.40;;;;;;4968356;28;20035;-58
2022/02/24 02:08:57;;;;;;;3.63;1.48;;;11.80;88.50;;;;;;4969339;28;20054;-58
2022/02/24 02:11:24;;;;;;;4.72;2.20;;;11.80;88.40;;;;;;4979293;28;20056;-59
2022/02/24 02:13:52;;;;;;;4.10;1.85;;;11.80;88.00;;;;;;4969482;28;20661;-58
2022/02/24 02:16:19;;;;;;;5.15;1.85;;;11.80;87.90;;;;;;4968922;28;20075;-58
2022/02/24 02:18:47;;;;;;;2.58;1.33;;;11.90;87.50;;;;;;4972404;28;20428;-58
2022/02/24 02:21:14;;;;;;;3.30;1.90;;;11.80;87.20;;;;;;4971743;28;20105;-58
2022/02/24 02:23:42;;;;;;;5.70;1.52;;;11.80;87.10;;;;;;4972766;28;20454;-58
2022/02/24 02:26:09;;;;;;;2.47;1.45;;;11.80;87.00;;;;;;4971740;28;20051;-58
2022/02/24 02:28:37;;;;;;;4.50;1.42;;;11.80;86.70;;;;;;4972679;28;20494;-58
2022/02/24 02:31:05;;;;;;;3.03;1.50;;;11.70;86.70;;;;;;4972190;28;20077;-58
2022/02/24 02:33:33;;;;;;;3.58;1.40;;;11.80;87.20;;;;;;4972940;28;20046;-58
2022/02/24 02:36:01;;;;;;;5.93;1.70;;;11.70;87.40;;;;;;4970513;28;20055;-58
2022/02/24 02:38:28;;;;;;;2.65;1.60;;;11.70;88.20;;;;;;4973746;28;20053;-59
2022/02/24 02:40:58;;;;;;;3.38;1.73;;;11.70;88.70;;;;;;4972244;28;20086;-58
2022/02/24 02:43:26;;;;;;;3.60;1.50;;;11.70;88.90;;;;;;4972786;28;20046;-58
2022/02/24 02:45:53;;;;;;;4.55;1.80;;;11.70;89.20;;;;;;4973537;28;20046;-58
2022/02/24 02:48:21;;;;;;;4.00;1.77;;;11.60;89.10;;;;;;4973570;28;20066;-58
2022/02/24 02:50:48;;;;;;;4.10;2.55;;;11.60;89.30;;;;;;4973576;28;20401;-57
2022/02/24 02:53:16;;;;;;;5.63;2.28;;;11.60;89.20;;;;;;4974841;28;20138;-58
2022/02/24 02:55:44;;;;;;;2.30;1.50;;;11.60;89.30;;;;;;4973929;28;20039;-58
2022/02/24 02:58:12;;;;;;;4.43;1.67;;;11.60;89.70;;;;;;4973843;28;20486;-58
2022/02/24 03:00:39;;;;;;;5.22;1.92;;;11.70;90.10;;;;;;4973587;28;20053;-58
2022/02/24 03:03:07;;;;;;;5.68;2.17;;;11.60;90.10;;;;;;4974919;28;20127;-58
2022/02/24 03:05:36;;;;;;;3.70;2.38;;;11.60;90.20;;;;;;4974787;28;20039;-59
2022/02/24 03:08:06;;;;;;;4.63;1.65;;;11.60;90.20;;;;;;4973713;28;20450;-58
2022/02/24 03:10:34;;;;;;;4.25;2.05;;;11.60;90.10;;;;;;4974967;28;20494;-58
2022/02/24 03:13:02;;;;;;;2.85;1.50;;;11.60;90.10;;;;;;4974877;28;20570;-58
2022/02/24 03:15:32;;;;;;;4.20;1.55;;;11.60;90.20;;;;;;4974701;28;20043;-58
2022/02/24 03:18:00;;;;;;;4.68;2.30;;;11.60;90.10;;;;;;4973348;28;20154;-58
2022/02/24 03:20:30;;;;;;;3.13;1.98;;;11.60;90.00;;;;;;4973386;28;20039;-58
2022/02/24 03:23:00;;;;;;;4.18;1.98;;;11.60;90.00;;;;;;4973515;28;20046;-57
2022/02/24 03:25:28;;;;;;;3.88;1.73;;;11.50;89.50;;;;;;4974804;28;20051;-58
2022/02/24 03:27:55;;;;;;;2.53;1.38;;;11.50;88.10;;;;;;4973521;28;20410;-58
2022/02/24 03:30:24;;;;;;;2.85;1.55;;;11.60;86.80;;;;;;4976867;28;20074;-58
2022/02/24 03:32:54;;;;;;;3.97;2.00;;;11.60;85.90;;;;;;4977012;28;20051;-58
2022/02/24 03:35:22;;;;;;;11.27;2.53;;;11.50;84.90;;;;;;4978380;28;20131;-59
2022/02/24 03:37:49;;;;;;;2.75;1.60;;;11.50;84.70;;;;;;4977524;28;20089;-58
2022/02/24 03:40:18;;;;;;;4.07;2.40;;;11.50;84.50;;;;;;4977254;28;20424;-57
2022/02/24 03:42:48;;;;;;;2.75;1.58;;;11.50;84.20;;;;;;4978261;28;20042;-58
2022/02/24 03:45:16;;;;;;;2.67;1.30;;;11.50;83.80;;;;;;4978305;28;20552;-58
2022/02/24 03:47:43;;;;;;;3.65;1.45;;;11.40;83.60;;;;;;4978112;28;20042;-58
2022/02/24 03:50:13;;;;;;;5.10;1.98;;;11.50;83.50;;;;;;4978096;28;20077;-58
2022/02/24 03:52:47;;;;;;;3.35;2.08;;;11.50;83.80;;;;;;4946366;28;20517;-58
2022/02/24 03:55:14;;;;;;;3.10;1.60;;;11.50;84.20;;;;;;4977260;28;20132;-58
2022/02/24 03:57:42;;;;;;;6.80;1.50;;;11.40;84.50;;;;;;4977972;28;20050;-58
2022/02/24 04:00:10;;;;;;;3.28;1.60;;;11.40;84.80;;;;;;4977897;28;20486;-58
2022/02/24 04:02:43;;;;;;;3.85;1.73;;;11.40;84.80;;;;;;4976868;28;20069;-58
2022/02/24 04:05:13;;;;;;;3.05;1.80;;;11.30;84.80;;;;;;4976981;28;20050;-58
2022/02/24 04:07:42;;;;;;;5.15;2.10;;;11.30;84.70;;;;;;4978043;28;20062;-58
2022/02/24 04:10:10;;;;;;;2.45;1.70;;;11.30;84.90;;;;;;4976682;28;20051;-58
2022/02/24 04:12:40;;;;;;;3.78;1.85;;;11.30;84.50;;;;;;4961022;28;20097;-58
2022/02/24 04:15:08;;;;;;;3.95;2.28;;;11.20;84.40;;;;;;4977645;28;20056;-58
2022/02/24 04:17:36;;;;;;;3.33;2.00;;;11.20;84.30;;;;;;4976382;28;20043;-58
2022/02/24 04:20:03;;;;;;;3.00;2.03;;;11.20;84.40;;;;;;4976629;28;20062;-58
2022/02/24 04:22:31;;;;;;;4.50;1.70;;;11.10;84.20;;;;;;4976518;28;20154;-58
2022/02/24 04:24:58;;;;;;;3.25;1.73;;;11.10;84.70;;;;;;4977471;28;20081;-57
2022/02/24 04:27:26;;;;;;;2.33;1.30;;;11.10;85.10;;;;;;4976171;28;20043;-58
2022/02/24 04:29:54;;;;;;;4.18;1.65;;;11.20;85.50;;;;;;4977614;28;20132;-58
2022/02/24 04:32:21;;;;;;;5.03;1.88;;;11.10;85.70;;;;;;4976214;28;20077;-58
2022/02/24 04:34:49;;;;;;;2.53;1.65;;;11.10;86.10;;;;;;4976380;28;20508;-58
2022/02/24 04:37:17;;;;;;;3.83;1.50;;;11.10;86.70;;;;;;4960284;28;20520;-58
2022/02/24 04:39:45;;;;;;;5.50;2.35;;;11.20;87.00;;;;;;4977284;28;20093;-58
2022/02/24 04:42:12;;;;;;;3.00;2.13;;;11.20;87.10;;;;;;4975484;28;20453;-58
2022/02/24 04:44:40;;;;;;;9.52;2.25;;;11.20;87.50;;;;;;4977345;28;20126;-58
2022/02/24 04:47:08;;;;;;;6.13;2.00;;;11.10;87.60;;;;;;4975853;28;20126;-57
2022/02/24 04:49:35;;;;;;;4.22;1.38;;;11.10;87.50;;;;;;4975749;28;20066;-58
2022/02/24 04:52:03;;;;;;;2.60;1.50;;;11.10;87.60;;;;;;4975904;28;20114;-57
2022/02/24 04:54:31;;;;;;;5.10;2.42;;;11.10;87.30;;;;;;4977019;28;20131;-59
2022/02/24 04:56:59;;;;;;;6.15;1.98;;;11.00;87.40;;;;;;4976798;28;20070;-58
2022/02/24 04:59:26;;;;;;;3.35;2.35;;;11.10;87.70;;;;;;4976912;28;20510;-58
2022/02/24 05:01:54;;;;;;;4.05;1.60;;;11.00;87.90;;;;;;4976853;28;20038;-57
2022/02/24 05:04:22;;;;;;;7.13;3.20;;;11.00;88.40;;;;;;4959511;28;20050;-58
2022/02/24 05:06:50;;;;;;;4.53;2.10;;;11.00;88.80;;;;;;4943630;28;20074;-58
2022/02/24 05:09:19;;;;;;;4.55;2.08;;;11.00;89.20;;;;;;4976514;28;20074;-58
2022/02/24 05:11:47;;;;;;;3.17;1.80;;;11.00;89.40;;;;;;4976473;28;20050;-58
2022/02/24 05:14:14;;;;;;;4.72;1.95;;;11.10;89.50;;;;;;4975819;28;20050;-58
2022/02/24 05:16:42;;;;;;;6.28;1.83;;;11.10;89.30;;;;;;4976471;28;20105;-57
2022/02/24 05:19:10;;;;;;;5.45;1.85;;;11.10;88.90;;;;;;4976572;28;20113;-58
2022/02/24 05:21:38;;;;;;;5.00;1.85;;;11.10;88.80;;;;;;4975666;28;20047;-58
2022/02/24 05:24:06;;;;;;;6.25;1.73;;;11.10;88.70;;;;;;4976448;28;20508;-58
2022/02/24 05:26:33;;;;;;;4.05;2.28;;;11.00;88.50;;;;;;4976458;28;20374;-58
2022/02/24 05:29:01;;;;;;;3.60;2.20;;;11.00;88.20;;;;;;4976283;28;20394;-58
2022/02/24 05:31:29;;;;;;;6.07;2.05;;;10.90;88.00;;;;;;4976377;28;20041;-58
2022/02/24 05:33:56;;;;;;;3.38;2.38;;;10.90;87.40;;;;;;4974978;28;20401;-58
2022/02/24 05:36:24;;;;;;;4.32;2.30;;;10.90;86.90;;;;;;4976117;28;20513;-58
2022/02/24 05:38:54;;;;;;;5.13;2.08;;;10.90;87.20;;;;;;4976094;28;20066;-58
2022/02/24 05:41:22;;;;;;;7.90;2.50;;;10.90;87.40;;;;;;4974907;28;20047;-58
2022/02/24 05:43:51;;;;;;;6.90;2.13;;;11.00;87.20;;;;;;4976083;28;20552;-57
2022/02/24 05:46:19;;;;;;;2.97;1.73;;;11.10;86.50;;;;;;4974924;28;20089;-58
2022/02/24 05:48:47;;;;;;;5.25;1.85;;;11.10;86.30;;;;;;4974804;28;20042;-58
2022/02/24 05:51:15;;;;;;;2.60;1.48;;;11.30;86.10;;;;;;4975892;28;20069;-58
2022/02/24 05:53:45;;;;;;;4.65;2.00;;;11.30;85.70;;;;;;4974083;28;20046;-57
2022/02/24 05:56:13;;;;;;;4.78;1.92;;;11.50;84.20;;;;;;4974823;28;20093;-57
2022/02/24 05:58:42;;;;;;;3.58;1.80;;;11.70;83.40;;;;;;4958724;28;20441;-58
2022/02/24 06:01:10;;;;;;;2.35;1.98;;;11.80;83.10;;;;;;4974680;28;20039;-57
2022/02/24 06:03:38;;;;;;;3.60;2.00;;;12.10;82.90;;;;;;4974484;28;20438;-58
2022/02/24 06:06:06;;;;;;;5.22;2.10;;;12.10;82.30;;;;;;4974377;28;20102;-57
2022/02/24 06:08:34;;;;;;;5.60;2.40;;;12.30;81.00;;;;;;4975441;28;20438;-57
2022/02/24 06:11:02;;;;;;;4.95;2.10;;;12.40;80.60;;;;;;4975613;28;20390;-58
2022/02/24 06:13:29;;;;;;;4.03;2.50;;;12.50;80.30;;;;;;4975265;28;20059;-58
2022/02/24 06:15:57;;;;;;;2.97;2.03;;;12.70;80.20;;;;;;4958388;28;20047;-58
2022/02/24 06:18:25;;;;;;;2.63;1.70;;;12.80;80.00;;;;;;4975255;28;20515;-58
2022/02/24 06:20:53;;;;;;;5.28;2.13;;;12.90;79.70;;;;;;4958485;28;20125;-58
2022/02/24 06:23:22;;;;;;;6.32;1.88;;;13.00;79.80;;;;;;4974381;28;20042;-59
2022/02/24 06:25:50;;;;;;;4.63;2.30;;;13.20;79.60;;;;;;4975773;28;20393;-58
2022/02/24 06:28:18;;;;;;;4.35;2.85;;;13.30;79.80;;;;;;4974357;28;20138;-58
2022/02/24 06:30:45;;;;;;;4.10;2.92;;;13.50;79.70;;;;;;4975190;28;20066;-58
2022/02/24 06:33:13;;;;;;;5.55;2.05;;;13.70;78.90;;;;;;4973996;28;20122;-58
2022/02/24 06:35:41;;;;;;;4.15;2.10;;;13.80;77.90;;;;;;4973854;28;20450;-58
2022/02/24 06:38:08;;;;;;;8.25;1.83;;;14.00;76.80;;;;;;4975100;28;20069;-58
2022/02/24 06:40:36;;;;;;;5.00;2.30;;;14.10;76.10;;;;;;4973975;28;20043;-58
2022/02/24 06:43:03;;;;;;;3.22;2.15;;;14.10;75.60;;;;;;4974023;28;20047;-58
2022/02/24 06:45:31;;;;;;;6.65;2.38;;;14.60;75.00;;;;;;4974161;28;20050;-58
2022/02/24 06:47:59;;;;;;;5.07;2.42;;;14.80;74.90;;;;;;4957952;28;20050;-58
2022/02/24 06:50:26;;;;;;;6.35;2.03;;;15.00;73.90;;;;;;4973705;28;20053;-58
2022/02/24 06:52:54;;;;;;;3.95;1.70;;;15.30;72.60;;;;;;4973949;28;20035;-58
2022/02/24 06:55:22;;;;;;;4.72;2.22;;;15.40;72.10;;;;;;4975000;28;20433;-58
2022/02/24 06:57:53;;;;;;;7.22;2.92;;;15.80;71.50;;;;;;4974868;28;20066;-58
2022/02/24 07:00:22;;;;;;;6.40;2.83;;;16.20;70.40;;;;;;4974786;28;20086;-58
2022/02/24 07:02:51;;;;;;;3.53;1.92;;;16.40;69.60;;;;;;4973895;28;20043;-58
2022/02/24 07:05:19;;;;;;;5.00;2.60;;;16.40;69.30;;;;;;4974474;28;20500;-58
2022/02/24 07:07:46;;;;;;;4.35;2.08;;;16.20;69.50;;;;;;4973717;28;20043;-58
2022/02/24 07:10:14;;;;;;;5.20;1.80;;;16.10;69.20;;;;;;4973450;28;20113;-58
2022/02/24 07:12:43;;;;;;;8.27;2.40;;;16.00;69.40;;;;;;4973329;28;20061;-58
2022/02/24 07:15:13;;;;;;;5.93;2.42;;;15.60;69.70;;;;;;4974646;28;20068;-58
2022/02/24 07:17:41;;;;;;;4.30;2.38;;;15.50;69.40;;;;;;4973704;28;20114;-58
2022/02/24 07:20:10;;;;;;;4.05;2.25;;;15.30;69.90;;;;;;4973622;28;20051;-58
2022/02/24 07:22:38;;;;;;;6.40;2.40;;;15.30;70.10;;;;;;4974626;28;20130;-58
2022/02/24 07:25:06;;;;;;;4.25;2.10;;;15.50;70.00;;;;;;4957468;28;20053;-58
2022/02/24 07:27:34;;;;;;;4.60;2.00;;;15.50;69.60;;;;;;4973373;28;20102;-58
2022/02/24 07:30:04;;;;;;;5.28;1.88;;;15.70;69.00;;;;;;4973058;28;20047;-57
2022/02/24 07:32:32;;;;;;;5.85;3.00;;;15.30;68.60;;;;;;4974916;28;20390;-58
2022/02/24 07:35:00;;;;;;;2.92;2.00;;;15.40;69.70;;;;;;4973534;28;20091;-58
2022/02/24 07:37:28;;;;;;;9.55;2.42;;;15.40;70.20;;;;;;4974424;28;20489;-58
2022/02/24 07:39:55;;;;;;;4.80;2.13;;;15.40;69.40;;;;;;4974512;28;20043;-57
2022/02/24 07:42:23;;;;;;;3.88;1.90;;;15.30;68.90;;;;;;4941447;28;20050;-58
2022/02/24 07:44:51;;;;;;;4.72;2.33;;;15.10;69.40;;;;;;4973322;28;20039;-58
2022/02/24 07:47:19;;;;;;;3.75;2.03;;;15.00;69.40;;;;;;4974625;28;20038;-58
2022/02/24 07:49:47;;;;;;;2.70;1.83;;;15.10;69.40;;;;;;4974358;28;20129;-57
2022/02/24 07:52:15;;;;;;;2.85;1.77;;;15.20;69.70;;;;;;4973292;28;20049;-57
2022/02/24 07:54:43;;;;;;;4.60;1.95;;;15.20;69.20;;;;;;4974326;28;20043;-58
2022/02/24 07:57:11;;;;;;;3.42;2.03;;;15.30;69.10;;;;;;4973065;28;20482;-58
2022/02/24 07:59:39;;;;;;;5.72;1.85;;;15.20;68.60;;;;;;4974428;28;20138;-58
2022/02/24 08:02:07;;;;;;;4.20;1.60;;;15.30;67.90;;;;;;4973224;28;20049;-58
2022/02/24 08:04:34;;;;;;;4.97;1.77;;;15.20;67.80;;;;;;4974229;28;20042;-58
2022/02/24 08:07:02;;;;;;;3.95;1.85;;;15.30;68.40;;;;;;4972966;28;20134;-58
2022/02/24 08:09:32;;;;;;;2.63;1.52;;;15.10;67.30;;;;;;4972958;28;20073;-58
2022/02/24 08:14:45;;;;;;;5.60;2.20;;;15.20;67.10;;;;;;4973131;28;20053;-56
2022/02/24 08:17:13;;;;;;;2.95;2.20;;;15.40;67.50;;;;;;4975688;28;20290;-58
2022/02/24 08:19:42;;;;;;;7.22;2.42;;;15.30;68.00;;;;;;4977519;28;20047;-58
2022/02/24 08:22:10;;;;;;;4.18;2.20;;;15.50;68.40;;;;;;4977524;28;20154;-58
2022/02/24 08:24:37;;;;;;;5.55;1.95;;;15.60;68.00;;;;;;4976500;28;20133;-58
2022/02/24 08:27:05;;;;;;;4.13;1.60;;;15.80;68.00;;;;;;4977641;28;20038;-58
2022/02/24 08:29:33;;;;;;;5.88;2.17;;;15.90;67.30;;;;;;4977413;28;20039;-58
2022/02/24 08:32:00;;;;;;;4.70;1.88;;;16.20;67.10;;;;;;4976841;28;20059;-58
2022/02/24 08:34:28;;;;;;;6.68;2.33;;;16.30;67.00;;;;;;4977402;28;20141;-58
2022/02/24 08:36:56;;;;;;;7.07;2.80;;;16.50;66.60;;;;;;4977231;28;20054;-58
2022/02/24 08:39:26;;;;;;;5.05;2.25;;;16.60;66.40;;;;;;4972317;28;20082;-58
2022/02/24 08:41:54;;;;;;;5.20;1.85;;;16.70;66.70;;;;;;4974664;28;20053;-58
2022/02/24 08:44:21;;;;;;;7.70;2.95;;;16.50;66.50;;;;;;4974873;28;20050;-58
2022/02/24 08:46:49;;;;;;;4.93;2.60;;;16.50;67.20;;;;;;4970745;28;20043;-58
2022/02/24 08:49:17;;;;;;;4.75;2.10;;;16.70;67.50;;;;;;4972942;28;20035;-58
2022/02/24 08:51:47;;;;;;;5.15;1.95;;;16.80;67.40;;;;;;4975122;28;20043;-59
2022/02/24 08:54:14;;;;;;;5.75;2.38;;;17.00;66.90;;;;;;4973421;28;20043;-58
2022/02/24 08:56:44;;;;;;;4.35;2.00;;;17.20;66.60;;;;;;4966308;28;20078;-59
2022/02/24 08:59:11;;;;;;;4.50;1.63;;;17.40;66.70;;;;;;4972814;28;20217;-58
2022/02/24 09:01:39;;;;;;;2.58;1.45;;;17.50;69.80;;;;;;4975150;28;20050;-58
2022/02/24 09:04:07;;;;;;;4.05;1.80;;;17.30;65.50;;;;;;4973620;28;20051;-58
2022/02/24 09:06:34;;;;;;;3.92;2.22;;;17.30;65.30;;;;;;4940632;28;20051;-58
2022/02/24 09:09:02;;;;;;;6.15;2.83;;;17.30;66.30;;;;;;4972787;28;20054;-58
2022/02/24 09:11:30;;;;;;;5.78;2.10;;;17.10;64.30;;;;;;4957890;28;20416;-60
2022/02/24 09:13:57;;;;;;;3.53;2.03;;;16.90;64.10;;;;;;4968464;28;20527;-59
2022/02/24 09:16:26;;;;;;;3.67;1.92;;;17.10;65.80;;;;;;4974316;28;20042;-59
2022/02/24 09:18:54;;;;;;;4.93;3.05;;;17.10;65.10;;;;;;4974274;28;20733;-58
2022/02/24 09:21:23;;;;;;;4.25;2.25;;;17.10;64.40;;;;;;4974087;28;20043;-59
2022/02/24 09:23:51;;;;;;;7.55;2.55;;;17.20;64.70;;;;;;4973033;28;20130;-59
2022/02/24 09:26:19;;;;;;;3.95;2.28;;;17.20;65.30;;;;;;4974497;28;20047;-61
2022/02/24 09:28:46;;;;;;;5.80;2.38;;;17.40;65.20;;;;;;4974918;28;20050;-59
2022/02/24 09:31:14;;;;;;;8.23;2.35;;;17.30;64.50;;;;;;4973989;28;20054;-59
2022/02/24 09:33:42;;;;;;;4.30;2.30;;;17.20;64.90;;;;;;4963587;28;20118;-58
2022/02/24 09:36:09;;;;;;;3.03;1.60;;;17.30;65.80;;;;;;4957123;28;20043;-58
2022/02/24 09:38:40;;;;;;;3.92;1.63;;;17.40;65.70;;;;;;4955985;29;20040;-58
2022/02/24 09:41:10;;;;;;;5.18;1.70;;;17.60;64.70;;;;;;4955815;29;20047;-58
2022/02/24 09:43:38;;;;;;;8.70;1.58;;;17.70;65.50;;;;;;4955701;29;20051;-58
2022/02/24 09:46:09;;;;;;;8.75;2.20;;;17.70;65.50;;;;;;4956629;28;20047;-58
2022/02/24 09:48:42;;;;;;;5.10;2.58;;;17.60;65.10;;;;;;4955640;29;20049;-58
2022/02/24 09:51:18;;;;;;;5.55;1.67;;;17.60;65.60;;;;;;4956759;29;20514;-58
2022/02/24 09:53:46;;;;;;;;;;;17.60;65.60;;;;;;4940306;29;20047;-58
2022/02/24 09:56:19;;;;;;;3.25;1.98;;;17.50;63.40;;;;;;4955435;29;19923;-58
2022/02/24 09:58:49;;;;;;;5.45;1.75;;;17.30;63.90;;;;;;4955591;29;20047;-58
2022/02/24 10:01:17;;;;;;;2.38;1.48;;;17.30;65.00;;;;;;4956888;28;20138;-58
2022/02/24 10:03:52;;;;;;;6.13;1.50;;;17.20;63.80;;;;;;4971380;28;20406;-58
2022/02/24 10:06:41;;;;;;;3.63;1.70;;;17.40;62.80;;;;;;4956580;28;20043;-58
2022/02/24 10:09:10;;;;;;;6.05;2.63;;;17.50;64.60;;;;;;4956269;28;20062;-59
2022/02/24 10:11:39;;;;;;;4.80;2.08;;;17.40;65.80;;;;;;4955031;29;20419;-59
2022/02/24 10:14:25;;;;;;;6.05;1.85;;;17.30;64.60;;;;;;4955085;29;20166;-59
2022/02/24 10:16:57;;;;;;;6.33;2.30;;;17.00;66.80;;;;;;4956347;28;20122;-59
2022/02/24 10:19:43;;;;;;;2.95;1.80;;;17.10;67.50;;;;;;4956004;28;20054;-60
2022/02/24 10:22:13;;;;;;;5.03;2.67;;;17.30;66.30;;;;;;4939311;29;20051;-59
2022/02/24 10:24:43;;;;;;;5.93;1.70;;;17.50;66.00;;;;;;4954962;28;20035;-59
2022/02/24 10:27:15;;;;;;;3.50;2.22;;;17.40;66.00;;;;;;4954832;28;20502;-59
2022/02/24 10:30:13;;;;;;;3.53;2.40;;;17.30;66.10;;;;;;4954569;29;20058;-59
2022/02/24 10:32:45;;;;;;;5.53;2.10;;;17.10;66.00;;;;;;4956262;29;20133;-59
2022/02/24 10:35:34;;;;;;;4.15;2.60;;;17.20;65.10;;;;;;4954807;29;20094;-59
2022/02/24 10:38:12;;;;;;;3.08;1.60;;;17.10;66.30;;;;;;4938827;28;20109;-59
2022/02/24 10:40:42;;;;;;;2.42;1.50;;;17.10;66.70;;;;;;4955967;28;20047;-59
2022/02/24 10:43:19;;;;;;;6.95;2.42;;;17.10;66.10;;;;;;4955819;28;20078;-59
2022/02/24 10:45:57;;;;;;;7.75;2.50;;;17.00;66.50;;;;;;4954834;29;20070;-59
2022/02/24 10:48:25;;;;;;;9.07;3.85;;;17.20;67.40;;;;;;4954803;29;20059;-59
2022/02/24 10:51:05;;;;;;;4.88;2.53;;;17.20;67.80;;;;;;4955650;28;20490;-59
2022/02/24 10:53:35;;;;;;;4.68;1.98;;;17.30;66.90;;;;;;4954777;29;20098;-59
2022/02/24 10:56:11;;;;;;;3.63;2.08;;;17.30;66.00;;;;;;4938802;29;20139;-59
2022/02/24 10:58:45;;;;;;;4.00;1.58;;;17.30;64.90;;;;;;4955700;28;20043;-59
2022/02/24 11:01:20;;;;;;;2.97;2.03;;;17.10;66.00;;;;;;4954594;29;20078;-59
2022/02/24 11:03:59;;;;;;;5.03;2.70;;;16.90;67.00;;;;;;4954909;28;20062;-59
2022/02/24 11:06:29;;;;;;;4.90;1.98;;;17.00;67.50;;;;;;4955687;28;20071;-60
2022/02/24 11:08:57;;;;;;;3.80;2.10;;;17.00;68.30;;;;;;4954549;29;20048;-59
2022/02/24 11:11:34;;;;;;;5.22;2.00;;;17.20;68.80;;;;;;4955477;28;20497;-60
2022/02/24 11:14:02;;;;;;;;;;;17.30;69.00;;;;;;4954726;29;20047;-59
2022/02/24 11:16:33;;;;;;;7.28;3.13;;;17.30;68.20;;;;;;4938806;29;20009;-59
2022/02/24 11:19:01;;;;;;;8.05;4.00;;;17.30;67.40;;;;;;4954290;29;20134;-59
2022/02/24 11:21:29;;;;;;;4.25;1.95;;;17.30;66.00;;;;;;4955371;28;20474;-60
2022/02/24 11:23:57;;;;;;;3.22;2.00;;;17.00;65.80;;;;;;4955405;29;20086;-59
2022/02/24 11:26:32;;;;;;;4.80;2.00;;;16.80;66.60;;;;;;4954242;29;20043;-59
2022/02/24 11:29:05;;;;;;;13.43;3.63;;;16.80;66.80;;;;;;4955660;29;20047;-59
2022/02/24 11:31:54;;;;;;;5.88;2.88;;;16.80;67.30;;;;;;4954030;29;20397;-60
2022/02/24 11:35:01;;;;;;;7.18;2.25;;;16.80;67.90;;;;;;4954114;28;20043;-60
2022/02/24 11:37:31;;;;;;;4.57;1.83;;;17.00;68.20;;;;;;4955454;29;20387;-59
2022/02/24 11:40:17;;;;;;;5.13;1.90;;;17.10;67.90;;;;;;4954625;29;20058;-59
2022/02/24 11:43:06;;;;;;;3.83;2.50;;;16.90;67.00;;;;;;4955263;29;20133;-59
2022/02/24 11:45:37;;;;;;;4.07;2.28;;;16.90;67.20;;;;;;4953995;29;20372;-59
2022/02/24 11:48:06;;;;;;;5.03;3.00;;;16.90;66.90;;;;;;4955215;29;20065;-59
2022/02/24 11:51:01;;;;;;;3.58;1.95;;;16.70;66.50;;;;;;4956003;28;20047;-60
2022/02/24 11:53:28;;;;;;;3.47;1.50;;;16.50;65.50;;;;;;4972438;28;20056;-60
2022/02/24 11:56:15;;;;;;;3.45;1.88;;;16.20;66.00;;;;;;4957634;29;20122;-59
2022/02/24 11:58:55;;;;;;;3.45;1.75;;;16.40;66.30;;;;;;4958768;28;20039;-59
2022/02/24 12:01:30;;;;;;;6.63;2.55;;;16.50;67.80;;;;;;4957596;29;20043;-60
2022/02/24 12:04:00;;;;;;;3.30;1.80;;;16.50;68.80;;;;;;4958810;28;20197;-59
2022/02/24 12:06:48;;;;;;;2.85;1.58;;;16.50;68.80;;;;;;4957311;29;20143;-59
2022/02/24 12:09:31;;;;;;;3.65;2.40;;;16.60;67.10;;;;;;4958734;29;20043;-59
2022/02/24 12:12:00;;;;;;;3.67;1.80;;;16.60;66.50;;;;;;4957125;29;20494;-60
2022/02/24 12:14:28;;;;;;;4.05;1.50;;;16.60;67.90;;;;;;4957345;29;20043;-59
2022/02/24 12:17:05;;;;;;;6.43;2.17;;;16.60;66.40;;;;;;4941419;29;20126;-59
2022/02/24 12:19:54;;;;;;;5.85;2.63;;;16.40;66.80;;;;;;4957315;29;20502;-59
2022/02/24 12:22:30;;;;;;;3.28;1.92;;;16.50;68.70;;;;;;4957514;29;20051;-60
2022/02/24 12:25:22;;;;;;;4.43;2.55;;;16.50;67.80;;;;;;4958392;29;20043;-59
2022/02/24 12:28:04;;;;;;;7.47;1.77;;;16.40;67.40;;;;;;4957385;28;20502;-59
2022/02/24 12:30:37;;;;;;;6.53;1.85;;;16.40;68.00;;;;;;4957070;29;20039;-59
2022/02/24 12:33:07;;;;;;;5.13;2.60;;;16.50;66.80;;;;;;4958254;28;20047;-59
2022/02/24 12:35:45;;;;;;;3.10;1.50;;;16.40;68.20;;;;;;4957100;28;20059;-59
2022/02/24 12:38:18;;;;;;;4.25;1.50;;;16.40;68.10;;;;;;4957199;29;20079;-59
2022/02/24 12:40:48;;;;;;;2.80;1.60;;;16.40;68.10;;;;;;4956926;28;20055;-59
2022/02/24 12:43:18;;;;;;;3.00;1.80;;;16.40;67.80;;;;;;4958117;28;20043;-59
2022/02/24 12:45:47;;;;;;;15.88;2.40;;;16.40;68.80;;;;;;4957973;28;20047;-59
2022/02/24 12:48:17;;;;;;;3.08;2.00;;;16.40;68.70;;;;;;4957767;28;20039;-60
2022/02/24 12:50:55;;;;;;;3.83;2.30;;;16.40;68.30;;;;;;4956717;29;20047;-59
2022/02/24 12:53:25;;;;;;;4.03;1.80;;;16.40;67.70;;;;;;4958153;28;20047;-59
2022/02/24 12:55:54;;;;;;;4.97;2.97;;;16.40;68.80;;;;;;4956868;29;20043;-59
2022/02/24 12:58:23;;;;;;;4.55;1.63;;;16.40;68.40;;;;;;4940644;29;20090;-59
2022/02/24 13:00:53;;;;;;;4.90;2.45;;;16.20;67.90;;;;;;4957470;28;20082;-59
2022/02/24 13:03:25;;;;;;;7.10;2.88;;;16.30;67.70;;;;;;4957253;28;20051;-59
2022/02/24 13:05:55;;;;;;;2.25;1.60;;;16.20;67.50;;;;;;4956627;29;20402;-59